createdAt,value
2019-04-30T00:02:18.574Z,8.70
2019-04-30T00:04:55.391Z,8.70
2019-04-30T00:07:24.894Z,8.60
2019-04-30T00:09:57.563Z,8.50
2019-04-30T00:12:30.862Z,8.50
2019-04-30T00:14:58.796Z,8.40
2019-04-30T00:17:28.099Z,8.40
2019-04-30T00:19:59.867Z,8.40
2019-04-30T00:22:33.797Z,8.40
2019-04-30T00:24:59.727Z,8.30
2019-04-30T00:27:30.311Z,8.30
2019-04-30T00:30:00.298Z,8.20
2019-04-30T00:32:31.388Z,8.20
2019-04-30T00:35:01.502Z,8.20
2019-04-30T00:37:31.595Z,8.10
2019-04-30T00:40:01.445Z,8.10
2019-04-30T00:42:31.450Z,8.10
2019-04-30T00:45:06.695Z,8.00
2019-04-30T00:47:32.427Z,8.00
2019-04-30T00:50:01.728Z,8.00
2019-04-30T00:52:33.859Z,7.90
2019-04-30T00:55:07.504Z,7.90
2019-04-30T00:57:37.363Z,7.90
2019-04-30T01:00:10.869Z,7.90
2019-04-30T01:02:41.940Z,7.80
2019-04-30T01:05:13.258Z,7.70
2019-04-30T01:07:48.852Z,7.70
2019-04-30T01:10:15.247Z,7.70
2019-04-30T01:12:48.003Z,7.70
2019-04-30T01:15:19.028Z,7.70
2019-04-30T01:17:50.986Z,7.60
2019-04-30T01:20:24.196Z,7.60
2019-04-30T01:22:52.387Z,7.50
2019-04-30T01:25:22.221Z,7.40
2019-04-30T01:27:52.774Z,7.30
2019-04-30T01:30:23.214Z,7.30
2019-04-30T01:32:56.681Z,7.30
2019-04-30T01:35:27.815Z,7.30
2019-04-30T01:37:54.712Z,7.30
2019-04-30T01:40:24.039Z,7.30
2019-04-30T01:42:53.551Z,7.30
2019-04-30T01:45:23.273Z,7.30
2019-04-30T01:47:53.903Z,7.30
2019-04-30T01:50:23.211Z,7.30
2019-04-30T01:52:52.898Z,7.30
2019-04-30T01:55:25.154Z,7.10
2019-04-30T01:58:12.125Z,7.10
2019-04-30T02:00:49.437Z,7.10
2019-04-30T02:03:19.314Z,7.10
2019-04-30T02:05:49.837Z,7.10
2019-04-30T02:08:19.654Z,7.10
2019-04-30T02:10:51.289Z,7.10
2019-04-30T02:13:19.917Z,7.10
2019-04-30T02:15:49.380Z,7.00
2019-04-30T02:18:19.521Z,7.00
2019-04-30T02:20:49.654Z,7.10
2019-04-30T02:23:19.741Z,7.10
2019-04-30T02:25:49.222Z,7.10
2019-04-30T02:28:19.071Z,7.00
2019-04-30T02:30:50.405Z,7.00
2019-04-30T02:33:20.341Z,6.90
2019-04-30T02:35:53.961Z,6.90
2019-04-30T02:38:39.526Z,6.80
2019-04-30T02:41:09.817Z,6.80
2019-04-30T02:43:41.653Z,6.70
2019-04-30T02:46:13.494Z,6.70
2019-04-30T02:48:45.248Z,6.70
2019-04-30T02:51:15.050Z,6.70
2019-04-30T02:53:53.336Z,6.60
2019-04-30T02:56:26.691Z,6.60
2019-04-30T02:58:56.736Z,6.50
2019-04-30T03:01:26.320Z,6.50
2019-04-30T03:03:55.663Z,6.50
2019-04-30T03:06:24.968Z,6.50
2019-04-30T03:08:54.296Z,6.40
2019-04-30T03:11:23.670Z,6.40
2019-04-30T03:13:59.066Z,6.40
2019-04-30T03:16:44.350Z,6.40
2019-04-30T03:19:15.363Z,6.40
2019-04-30T03:21:50.394Z,6.40
2019-04-30T03:24:20.695Z,6.40
2019-04-30T03:26:50.160Z,6.40
2019-04-30T03:29:23.357Z,6.40
2019-04-30T03:31:52.303Z,6.40
2019-04-30T03:34:25.869Z,6.30
2019-04-30T03:36:53.113Z,6.30
2019-04-30T03:39:22.431Z,6.20
2019-04-30T03:41:52.379Z,6.30
2019-04-30T03:44:25.789Z,6.30
2019-04-30T03:46:52.658Z,6.30
2019-04-30T03:49:22.444Z,6.20
2019-04-30T03:51:51.996Z,6.10
2019-04-30T03:54:21.318Z,6.10
2019-04-30T03:56:52.259Z,6.10
2019-04-30T03:59:22.101Z,6.10
2019-04-30T04:01:53.051Z,6.10
2019-04-30T04:04:27.309Z,6.10
2019-04-30T04:07:10.353Z,6.00
2019-04-30T04:09:59.908Z,6.00
2019-04-30T04:12:30.819Z,5.90
2019-04-30T04:15:03.599Z,5.90
2019-04-30T04:17:31.890Z,6.00
2019-04-30T04:20:01.161Z,6.00
2019-04-30T04:22:30.987Z,6.00
2019-04-30T04:25:00.424Z,5.90
2019-04-30T04:27:30.364Z,5.90
2019-04-30T04:30:01.148Z,5.80
2019-04-30T04:32:32.178Z,5.80
2019-04-30T04:35:01.490Z,5.80
2019-04-30T04:37:30.804Z,5.80
2019-04-30T04:40:00.147Z,5.80
2019-04-30T04:42:32.907Z,5.80
2019-04-30T04:45:00.984Z,5.90
2019-04-30T04:47:31.108Z,5.90
2019-04-30T04:50:00.936Z,6.00
2019-04-30T04:52:31.605Z,6.00
2019-04-30T04:55:02.323Z,6.00
2019-04-30T04:57:31.642Z,6.00
2019-04-30T05:00:07.221Z,6.00
2019-04-30T05:02:34.174Z,6.10
2019-04-30T05:05:03.985Z,6.10
2019-04-30T05:07:33.279Z,6.10
2019-04-30T05:10:02.637Z,6.10
2019-04-30T05:12:32.194Z,6.10
2019-04-30T05:15:01.538Z,6.20
2019-04-30T05:17:32.132Z,6.20
2019-04-30T05:20:01.796Z,6.30
2019-04-30T05:22:31.903Z,6.40
2019-04-30T05:25:01.250Z,6.50
2019-04-30T05:27:30.547Z,6.50
2019-04-30T05:30:00.043Z,6.50
2019-04-30T05:32:30.098Z,6.50
2019-04-30T05:35:00.153Z,6.50
2019-04-30T05:37:30.103Z,6.60
2019-04-30T05:40:00.996Z,6.70
2019-04-30T05:42:30.494Z,6.80
2019-04-30T05:45:00.237Z,6.80
2019-04-30T05:47:30.294Z,6.80
2019-04-30T05:50:00.273Z,6.90
2019-04-30T05:52:30.103Z,7.00
2019-04-30T05:55:00.244Z,7.10
2019-04-30T05:57:30.540Z,7.20
2019-04-30T06:00:00.552Z,7.30
2019-04-30T06:02:33.751Z,7.50
2019-04-30T06:05:01.423Z,7.40
2019-04-30T06:07:30.736Z,7.50
2019-04-30T06:10:02.682Z,7.50
2019-04-30T06:12:33.864Z,7.50
2019-04-30T06:15:05.271Z,7.60
2019-04-30T06:17:39.126Z,7.70
2019-04-30T06:20:17.869Z,7.90
2019-04-30T06:22:40.898Z,8.00
2019-04-30T06:25:10.983Z,8.10
2019-04-30T06:27:40.923Z,8.20
2019-04-30T06:30:12.138Z,8.40
2019-04-30T06:32:42.989Z,8.50
2019-04-30T06:35:13.717Z,8.70
2019-04-30T06:37:43.090Z,8.70
2019-04-30T06:40:13.020Z,8.80
2019-04-30T06:42:42.373Z,8.80
2019-04-30T06:45:11.880Z,9.00
2019-04-30T06:47:41.440Z,9.10
2019-04-30T06:50:10.931Z,9.20
2019-04-30T06:52:40.923Z,9.40
2019-04-30T06:55:10.645Z,9.50
2019-04-30T06:57:40.771Z,9.60
2019-04-30T07:00:11.009Z,9.70
2019-04-30T07:02:40.888Z,9.80
2019-04-30T07:05:11.119Z,9.70
2019-04-30T07:07:42.053Z,9.80
2019-04-30T07:10:20.410Z,9.90
2019-04-30T07:12:58.971Z,9.90
2019-04-30T07:15:29.584Z,10.00
2019-04-30T07:17:59.215Z,9.90
2019-04-30T07:20:29.143Z,9.90
2019-04-30T07:23:02.930Z,9.80
2019-04-30T07:25:30.636Z,9.70
2019-04-30T07:28:02.392Z,9.70
2019-04-30T07:30:32.449Z,9.60
2019-04-30T07:33:02.632Z,9.50
2019-04-30T07:35:32.653Z,9.50
2019-04-30T07:38:04.934Z,9.60
2019-04-30T07:40:33.433Z,9.70
2019-04-30T07:43:02.938Z,9.60
2019-04-30T07:45:32.783Z,9.70
2019-04-30T07:48:03.432Z,9.70
2019-04-30T07:50:33.166Z,9.90
2019-04-30T07:53:06.627Z,9.90
2019-04-30T07:55:34.450Z,10.00
2019-04-30T07:58:03.762Z,10.10
2019-04-30T08:00:33.119Z,10.30
2019-04-30T08:03:22.744Z,10.50
2019-04-30T08:05:54.504Z,10.50
2019-04-30T08:08:40.834Z,10.50
2019-04-30T08:11:23.125Z,10.60
2019-04-30T08:13:42.756Z,10.70
2019-04-30T08:16:12.882Z,11.00
2019-04-30T08:18:45.047Z,11.20
2019-04-30T08:21:15.821Z,11.20
2019-04-30T08:23:46.053Z,11.20
2019-04-30T08:26:16.127Z,11.20
2019-04-30T08:28:48.609Z,11.40
2019-04-30T08:31:19.618Z,11.50
2019-04-30T08:33:49.563Z,11.60
2019-04-30T08:36:19.777Z,11.60
2019-04-30T08:38:50.785Z,11.80
2019-04-30T08:41:20.804Z,11.90
2019-04-30T08:43:50.603Z,12.10
2019-04-30T08:46:21.042Z,12.10
2019-04-30T08:48:53.794Z,12.40
2019-04-30T08:51:24.445Z,12.60
2019-04-30T08:53:54.219Z,12.60
2019-04-30T08:56:24.634Z,12.40
2019-04-30T08:58:54.943Z,12.50
2019-04-30T09:01:26.169Z,12.60
2019-04-30T09:03:57.076Z,12.70
2019-04-30T09:06:29.087Z,12.70
2019-04-30T09:08:59.398Z,12.80
2019-04-30T09:11:42.927Z,13.10
2019-04-30T09:14:02.091Z,13.40
2019-04-30T09:16:32.119Z,13.60
2019-04-30T09:19:02.158Z,13.80
2019-04-30T09:21:32.215Z,14.10
2019-04-30T09:24:02.165Z,14.30
2019-04-30T09:26:32.026Z,14.30
2019-04-30T09:29:02.015Z,14.40
2019-04-30T09:31:32.234Z,14.50
2019-04-30T09:34:13.756Z,14.40
2019-04-30T09:36:33.767Z,14.30
2019-04-30T09:39:04.959Z,14.40
2019-04-30T09:41:52.906Z,14.40
2019-04-30T09:44:23.084Z,14.50
2019-04-30T09:46:52.883Z,14.30
2019-04-30T09:49:23.162Z,14.20
2019-04-30T09:51:52.953Z,14.10
2019-04-30T09:54:23.766Z,14.20
2019-04-30T09:56:54.568Z,14.30
2019-04-30T09:59:23.867Z,14.40
2019-04-30T10:01:53.219Z,14.60
2019-04-30T10:04:23.051Z,14.90
2019-04-30T10:06:53.194Z,15.30
2019-04-30T10:09:22.986Z,15.50
2019-04-30T10:11:54.620Z,15.80
2019-04-30T10:14:25.512Z,16.00
2019-04-30T10:16:57.151Z,16.00
2019-04-30T10:19:29.256Z,16.00
2019-04-30T10:21:59.260Z,16.20
2019-04-30T10:24:29.680Z,16.30
2019-04-30T10:27:02.310Z,16.50
2019-04-30T10:29:32.920Z,16.70
2019-04-30T10:32:02.846Z,16.80
2019-04-30T10:34:32.668Z,17.00
2019-04-30T10:37:03.104Z,17.20
2019-04-30T10:39:33.150Z,17.60
2019-04-30T10:42:03.431Z,18.20
2019-04-30T10:44:33.219Z,18.50
2019-04-30T10:47:03.125Z,18.80
2019-04-30T10:49:33.082Z,19.40
2019-04-30T10:52:02.453Z,20.20
2019-04-30T10:54:31.813Z,21.10
2019-04-30T10:57:01.151Z,21.30
2019-04-30T10:59:30.858Z,22.30
2019-04-30T11:02:01.952Z,22.60
2019-04-30T11:04:31.270Z,21.60
2019-04-30T11:07:00.922Z,21.30
2019-04-30T11:09:33.039Z,20.80
2019-04-30T11:12:03.182Z,19.70
2019-04-30T11:14:32.921Z,18.90
2019-04-30T11:17:03.427Z,19.00
2019-04-30T11:19:33.308Z,18.90
2019-04-30T11:22:03.055Z,18.60
2019-04-30T11:24:37.927Z,18.50
2019-04-30T11:27:04.217Z,18.70
2019-04-30T11:29:34.146Z,20.00
2019-04-30T11:32:05.705Z,21.10
2019-04-30T11:34:35.417Z,20.60
2019-04-30T11:37:04.679Z,21.00
2019-04-30T11:39:34.598Z,21.10
2019-04-30T11:42:04.041Z,21.50
2019-04-30T11:44:33.353Z,22.40
2019-04-30T11:47:09.506Z,22.50
2019-04-30T11:49:39.168Z,23.30
2019-04-30T11:52:08.560Z,23.10
2019-04-30T11:54:48.686Z,23.20
2019-04-30T11:57:08.991Z,22.80
2019-04-30T11:59:39.543Z,22.80
2019-04-30T12:02:13.583Z,22.40
2019-04-30T12:04:42.888Z,22.00
2019-04-30T12:07:16.564Z,21.10
2019-04-30T12:09:59.811Z,20.50
2019-04-30T12:12:29.184Z,19.80
2019-04-30T12:15:00.259Z,19.70
2019-04-30T12:17:29.908Z,21.30
2019-04-30T12:19:59.242Z,22.80
2019-04-30T12:22:29.610Z,24.10
2019-04-30T12:25:03.264Z,24.90
2019-04-30T12:27:30.700Z,24.60
2019-04-30T12:30:00.071Z,25.00
2019-04-30T12:32:29.986Z,25.30
2019-04-30T12:34:59.222Z,25.50
2019-04-30T12:37:29.105Z,26.10
2019-04-30T12:39:59.752Z,24.80
2019-04-30T12:42:29.661Z,24.30
2019-04-30T12:44:59.555Z,25.30
2019-04-30T12:47:31.050Z,25.80
2019-04-30T12:50:09.409Z,25.80
2019-04-30T12:52:46.172Z,26.00
2019-04-30T12:55:32.587Z,25.60
2019-04-30T12:58:04.741Z,24.70
2019-04-30T13:00:35.211Z,23.80
2019-04-30T13:03:06.549Z,22.90
2019-04-30T13:05:36.392Z,22.20
2019-04-30T13:08:06.554Z,21.70
2019-04-30T13:10:38.445Z,21.60
2019-04-30T13:13:08.990Z,21.50
2019-04-30T13:15:39.244Z,21.30
2019-04-30T13:18:09.569Z,21.30
2019-04-30T13:20:40.074Z,21.40
2019-04-30T13:23:09.670Z,21.60
2019-04-30T13:25:50.707Z,21.30
2019-04-30T13:28:12.378Z,20.80
2019-04-30T13:30:42.892Z,20.50
2019-04-30T13:33:14.978Z,20.60
2019-04-30T13:35:44.847Z,20.50
2019-04-30T13:38:15.797Z,20.70
2019-04-30T13:40:48.842Z,20.40
2019-04-30T13:43:20.048Z,20.00
2019-04-30T13:45:51.790Z,19.80
2019-04-30T13:48:21.027Z,19.70
2019-04-30T13:50:50.371Z,20.10
2019-04-30T13:53:19.671Z,20.70
2019-04-30T13:55:49.507Z,20.80
2019-04-30T13:58:18.865Z,20.90
2019-04-30T14:00:49.455Z,20.70
2019-04-30T14:03:23.935Z,20.60
2019-04-30T14:05:53.294Z,20.50
2019-04-30T14:08:28.925Z,20.20
2019-04-30T14:10:59.179Z,20.20
2019-04-30T14:13:28.952Z,20.30
2019-04-30T14:15:58.331Z,20.50
2019-04-30T14:18:31.458Z,20.50
2019-04-30T14:21:00.817Z,20.30
2019-04-30T14:23:29.904Z,20.00
2019-04-30T14:26:01.133Z,19.90
2019-04-30T14:28:30.560Z,19.80
2019-04-30T14:30:59.989Z,19.80
2019-04-30T14:33:30.240Z,20.00
2019-04-30T14:36:00.822Z,20.00
2019-04-30T14:38:31.067Z,20.00
2019-04-30T14:41:01.657Z,20.00
2019-04-30T14:43:33.726Z,19.70
2019-04-30T14:46:10.025Z,19.60
2019-04-30T14:48:44.140Z,19.50
2019-04-30T14:51:14.363Z,19.50
2019-04-30T14:53:51.293Z,19.40
2019-04-30T14:56:29.526Z,19.20
2019-04-30T14:59:15.491Z,18.90
2019-04-30T15:01:51.650Z,18.90
2019-04-30T15:04:21.437Z,19.00
2019-04-30T15:06:51.475Z,19.10
2019-04-30T15:09:20.824Z,19.30
2019-04-30T15:11:50.445Z,19.40
2019-04-30T15:14:21.823Z,19.30
2019-04-30T15:16:51.185Z,18.90
2019-04-30T15:19:20.489Z,18.80
2019-04-30T15:21:49.936Z,18.60
2019-04-30T15:24:21.174Z,18.60
2019-04-30T15:26:57.823Z,18.60
2019-04-30T15:29:21.404Z,18.60
2019-04-30T15:31:51.430Z,18.60
2019-04-30T15:34:20.753Z,18.60
2019-04-30T15:36:50.069Z,18.60
2019-04-30T15:39:36.634Z,18.50
2019-04-30T15:42:06.887Z,18.20
2019-04-30T15:44:40.042Z,18.20
2019-04-30T15:47:09.157Z,18.00
2019-04-30T15:49:39.181Z,18.00
2019-04-30T15:52:11.036Z,18.00
2019-04-30T15:54:40.131Z,18.00
2019-04-30T15:57:09.522Z,18.00
2019-04-30T15:59:40.415Z,18.10
2019-04-30T16:02:11.804Z,18.20
2019-04-30T16:04:59.872Z,18.30
2019-04-30T16:07:29.630Z,18.30
2019-04-30T16:10:16.277Z,18.20
2019-04-30T16:12:48.721Z,18.10
2019-04-30T16:15:19.012Z,18.00
2019-04-30T16:17:49.951Z,18.10
2019-04-30T16:20:20.063Z,18.00
2019-04-30T16:22:50.088Z,17.90
2019-04-30T16:25:19.926Z,17.80
2019-04-30T16:27:49.930Z,17.70
2019-04-30T16:30:20.532Z,17.50
2019-04-30T16:32:50.781Z,17.50
2019-04-30T16:35:20.637Z,17.50
2019-04-30T16:37:50.850Z,17.60
2019-04-30T16:40:21.170Z,17.50
2019-04-30T16:42:51.003Z,17.40
2019-04-30T16:45:20.914Z,17.30
2019-04-30T16:47:51.214Z,17.20
2019-04-30T16:50:21.046Z,17.10
2019-04-30T16:52:51.203Z,17.10
2019-04-30T16:55:21.000Z,17.10
2019-04-30T16:57:51.203Z,17.10
2019-04-30T17:00:22.583Z,17.00
2019-04-30T17:02:54.297Z,17.00
2019-04-30T17:05:25.787Z,16.90
2019-04-30T17:07:59.230Z,16.80
2019-04-30T17:10:31.506Z,16.70
2019-04-30T17:13:09.364Z,16.70
2019-04-30T17:15:43.664Z,16.70
2019-04-30T17:18:12.982Z,16.60
2019-04-30T17:20:42.288Z,16.40
2019-04-30T17:23:11.628Z,16.40
2019-04-30T17:25:41.387Z,16.30
2019-04-30T17:28:11.455Z,16.30
2019-04-30T17:30:41.750Z,16.30
2019-04-30T17:33:11.645Z,16.30
2019-04-30T17:35:41.670Z,16.40
2019-04-30T17:38:11.723Z,16.40
2019-04-30T17:40:41.702Z,16.50
2019-04-30T17:43:11.723Z,16.50
2019-04-30T17:45:41.723Z,16.60
2019-04-30T17:48:11.665Z,16.60
2019-04-30T17:50:41.701Z,16.50
2019-04-30T17:53:11.734Z,16.50
2019-04-30T17:55:41.718Z,16.50
2019-04-30T17:58:11.740Z,16.40
2019-04-30T18:00:42.742Z,16.40
2019-04-30T18:03:12.193Z,16.30
2019-04-30T18:05:42.200Z,16.30
2019-04-30T18:08:12.251Z,16.30
2019-04-30T18:10:42.244Z,16.30
2019-04-30T18:13:12.511Z,16.20
2019-04-30T18:15:42.425Z,16.20
2019-04-30T18:18:23.205Z,16.20
2019-04-30T18:21:10.739Z,16.10
2019-04-30T18:23:44.687Z,16.00
2019-04-30T18:26:15.666Z,16.00
2019-04-30T18:28:45.013Z,15.90
2019-04-30T18:31:18.672Z,15.80
2019-04-30T18:33:49.278Z,15.70
2019-04-30T18:36:19.870Z,15.70
2019-04-30T18:38:50.242Z,15.60
2019-04-30T18:41:20.859Z,15.50
2019-04-30T18:43:50.906Z,15.50
2019-04-30T18:46:20.213Z,15.40
2019-04-30T18:48:52.530Z,15.40
2019-04-30T18:51:35.919Z,15.30
2019-04-30T18:53:52.580Z,15.30
2019-04-30T18:56:22.900Z,15.20
2019-04-30T18:58:52.340Z,15.20
2019-04-30T19:01:21.851Z,15.20
2019-04-30T19:03:51.170Z,15.10
2019-04-30T19:06:26.227Z,15.00
2019-04-30T19:09:00.285Z,15.00
2019-04-30T19:11:32.115Z,15.00
2019-04-30T19:14:22.071Z,15.00
2019-04-30T19:16:54.646Z,14.90
2019-04-30T19:19:29.652Z,14.80
2019-04-30T19:22:00.480Z,14.80
2019-04-30T19:24:30.617Z,14.80
2019-04-30T19:27:00.409Z,14.70
2019-04-30T19:29:30.382Z,14.60
2019-04-30T19:32:00.484Z,14.60
2019-04-30T19:34:31.622Z,14.60
2019-04-30T19:37:02.524Z,14.60
2019-04-30T19:39:32.577Z,14.50
2019-04-30T19:42:03.384Z,14.40
2019-04-30T19:44:33.327Z,14.40
2019-04-30T19:47:02.652Z,14.30
2019-04-30T19:49:31.999Z,14.30
2019-04-30T19:52:08.589Z,14.30
2019-04-30T19:54:34.013Z,14.20
2019-04-30T19:57:04.202Z,14.20
2019-04-30T19:59:52.815Z,14.10
2019-04-30T20:02:22.616Z,14.10
2019-04-30T20:04:52.430Z,14.00
2019-04-30T20:07:23.417Z,14.00
2019-04-30T20:10:03.259Z,13.90
2019-04-30T20:12:24.645Z,13.80
2019-04-30T20:14:54.515Z,13.80
2019-04-30T20:17:24.285Z,13.80
2019-04-30T20:19:54.377Z,13.80
2019-04-30T20:22:24.366Z,13.80
2019-04-30T20:24:54.150Z,13.80
2019-04-30T20:27:26.298Z,13.80
2019-04-30T20:29:59.081Z,13.80
2019-04-30T20:32:36.207Z,13.70
2019-04-30T20:35:00.090Z,13.60
2019-04-30T20:37:31.485Z,13.60
2019-04-30T20:40:06.061Z,13.60
2019-04-30T20:42:35.971Z,13.50
2019-04-30T20:45:06.481Z,13.40
2019-04-30T20:47:36.725Z,13.40
2019-04-30T20:50:07.457Z,13.40
2019-04-30T20:52:38.924Z,13.30
2019-04-30T20:55:09.158Z,13.30
2019-04-30T20:57:39.502Z,13.40
2019-04-30T21:00:27.321Z,13.30
2019-04-30T21:02:59.741Z,13.30
2019-04-30T21:05:28.724Z,13.20
2019-04-30T21:07:58.145Z,13.20
2019-04-30T21:10:29.685Z,13.20
2019-04-30T21:13:00.726Z,13.10
2019-04-30T21:15:31.045Z,13.10
2019-04-30T21:18:00.872Z,13.10
2019-04-30T21:20:30.255Z,13.10
2019-04-30T21:22:59.776Z,13.00
2019-04-30T21:25:29.319Z,13.00
2019-04-30T21:27:59.971Z,12.90
2019-04-30T21:30:29.505Z,12.90
2019-04-30T21:33:03.866Z,12.90
2019-04-30T21:35:37.602Z,12.90
2019-04-30T21:38:09.272Z,12.80
2019-04-30T21:40:39.447Z,12.80
2019-04-30T21:43:09.707Z,12.80
2019-04-30T21:45:39.987Z,12.70
2019-04-30T21:48:09.622Z,12.70
2019-04-30T21:50:40.004Z,12.70
2019-04-30T21:53:09.973Z,12.60
2019-04-30T21:55:39.995Z,12.50
2019-04-30T21:58:09.924Z,12.60
2019-04-30T22:00:41.229Z,12.60
2019-04-30T22:03:10.577Z,12.70
2019-04-30T22:05:41.060Z,12.60
2019-04-30T22:08:10.350Z,12.60
2019-04-30T22:10:40.926Z,12.60
2019-04-30T22:13:10.910Z,12.50
2019-04-30T22:15:40.910Z,12.40
2019-04-30T22:18:10.955Z,12.30
2019-04-30T22:20:41.025Z,12.40
2019-04-30T22:23:10.943Z,12.30
2019-04-30T22:25:40.860Z,12.30
2019-04-30T22:28:10.814Z,12.30
2019-04-30T22:30:41.685Z,12.30
2019-04-30T22:33:11.468Z,12.20
2019-04-30T22:35:45.646Z,12.20
2019-04-30T22:38:21.085Z,12.20
2019-04-30T22:40:50.909Z,12.20
2019-04-30T22:43:20.744Z,12.20
2019-04-30T22:45:59.579Z,12.10
2019-04-30T22:48:30.280Z,12.10
2019-04-30T22:51:01.198Z,12.10
2019-04-30T22:53:30.987Z,12.00
2019-04-30T22:56:00.835Z,12.00
2019-04-30T22:58:31.088Z,12.00
2019-04-30T23:01:08.714Z,12.00
2019-04-30T23:03:40.430Z,12.00
2019-04-30T23:06:10.235Z,11.90
2019-04-30T23:08:40.235Z,11.90
2019-04-30T23:11:11.127Z,11.90
2019-04-30T23:13:40.932Z,11.80
2019-04-30T23:16:12.071Z,11.80
2019-04-30T23:18:41.873Z,11.70
2019-04-30T23:21:12.280Z,11.70
2019-04-30T23:23:42.147Z,11.60
2019-04-30T23:26:11.941Z,11.60
2019-04-30T23:28:44.288Z,11.60
2019-04-30T23:31:15.190Z,11.60
2019-04-30T23:33:45.810Z,11.50
2019-04-30T23:36:15.606Z,11.50
2019-04-30T23:38:45.443Z,11.50
2019-04-30T23:41:15.732Z,11.40
2019-04-30T23:43:45.527Z,11.40
2019-04-30T23:46:34.797Z,11.40
2019-04-30T23:49:22.468Z,11.40
2019-04-30T23:52:12.188Z,11.40
2019-04-30T23:55:01.414Z,11.50
2019-04-30T23:57:49.623Z,11.40
